createdAt,value
2023-05-10T00:00:47.390Z,3.80
2023-05-10T00:03:14.215Z,4.27
2023-05-10T00:05:41.328Z,3.77
2023-05-10T00:08:07.993Z,4.03
2023-05-10T00:10:34.618Z,4.27
2023-05-10T00:13:01.296Z,4.47
2023-05-10T00:15:28.015Z,4.67
2023-05-10T00:17:54.754Z,5.27
2023-05-10T00:20:21.503Z,4.57
2023-05-10T00:22:48.143Z,4.07
2023-05-10T00:25:14.876Z,4.20
2023-05-10T00:27:41.525Z,4.30
2023-05-10T00:30:08.684Z,4.90
2023-05-10T00:32:35.517Z,4.30
2023-05-10T00:35:02.134Z,4.50
2023-05-10T00:37:28.873Z,4.67
2023-05-10T00:39:55.586Z,4.57
2023-05-10T00:42:23.323Z,4.43
2023-05-10T00:44:49.991Z,6.50
2023-05-10T00:47:17.526Z,4.33
2023-05-10T00:49:44.747Z,5.30
2023-05-10T00:52:11.481Z,4.17
2023-05-10T00:54:38.218Z,4.63
2023-05-10T00:57:05.416Z,5.27
2023-05-10T00:59:32.448Z,5.07
2023-05-10T01:01:59.368Z,4.20
2023-05-10T01:04:29.350Z,4.80
2023-05-10T01:06:56.060Z,4.50
2023-05-10T01:09:23.398Z,5.00
2023-05-10T01:11:51.143Z,4.83
2023-05-10T01:14:19.857Z,5.07
2023-05-10T01:16:48.322Z,4.70
2023-05-10T01:19:22.804Z,4.77
2023-05-10T01:22:11.479Z,5.10
2023-05-10T01:24:51.213Z,5.20
2023-05-10T01:27:29.878Z,5.40
2023-05-10T01:30:17.897Z,4.73
2023-05-10T01:33:20.178Z,6.80
2023-05-10T01:35:55.428Z,5.33
2023-05-10T01:38:31.268Z,5.93
2023-05-10T01:41:36.287Z,5.57
2023-05-10T01:44:18.537Z,5.07
2023-05-10T01:46:50.752Z,4.93
2023-05-10T01:49:26.218Z,5.33
2023-05-10T01:51:57.345Z,5.30
2023-05-10T01:54:25.333Z,5.63
2023-05-10T01:57:00.353Z,5.33
2023-05-10T01:59:31.448Z,6.07
2023-05-10T02:02:00.283Z,5.30
2023-05-10T02:04:28.518Z,5.63
2023-05-10T02:06:56.379Z,6.50
2023-05-10T02:09:24.813Z,5.90
2023-05-10T02:11:51.434Z,6.27
2023-05-10T02:14:19.645Z,6.23
2023-05-10T02:16:47.532Z,6.10
2023-05-10T02:19:15.450Z,6.97
2023-05-10T02:21:43.652Z,5.80
2023-05-10T02:24:12.189Z,6.40
2023-05-10T02:26:39.449Z,6.57
2023-05-10T02:29:07.721Z,6.03
2023-05-10T02:31:36.151Z,5.47
2023-05-10T02:34:04.805Z,5.70
2023-05-10T02:36:32.332Z,7.37
2023-05-10T02:39:01.800Z,5.83
2023-05-10T02:41:29.507Z,5.80
2023-05-10T02:44:00.121Z,4.90
2023-05-10T02:46:26.885Z,5.83
2023-05-10T02:48:53.640Z,5.53
2023-05-10T02:51:24.253Z,5.37
2023-05-10T02:53:54.294Z,5.90
2023-05-10T02:56:34.156Z,5.87
2023-05-10T02:59:00.961Z,8.60
2023-05-10T03:01:28.038Z,6.23
2023-05-10T03:03:54.987Z,6.17
2023-05-10T03:06:24.325Z,5.77
2023-05-10T03:08:51.280Z,6.43
2023-05-10T03:11:30.818Z,5.67
2023-05-10T03:14:09.005Z,6.53
2023-05-10T03:17:08.103Z,7.10
2023-05-10T03:19:52.015Z,8.80
2023-05-10T03:22:27.541Z,5.53
2023-05-10T03:24:57.476Z,4.13
2023-05-10T03:27:26.189Z,4.10
2023-05-10T03:29:54.613Z,3.53
2023-05-10T03:32:21.363Z,3.93
2023-05-10T03:34:47.971Z,2.80
2023-05-10T03:37:14.602Z,2.90
2023-05-10T03:39:41.322Z,2.77
2023-05-10T03:42:07.957Z,2.70
2023-05-10T03:44:34.576Z,2.67
2023-05-10T03:47:01.254Z,2.70
2023-05-10T03:49:27.913Z,2.93
2023-05-10T03:51:54.518Z,2.20
2023-05-10T03:54:21.401Z,2.00
2023-05-10T03:56:48.948Z,2.30
2023-05-10T03:59:15.998Z,2.27
2023-05-10T04:01:42.669Z,2.27
2023-05-10T04:04:09.285Z,1.50
2023-05-10T04:06:36.056Z,1.70
2023-05-10T04:09:05.330Z,1.60
2023-05-10T04:11:32.419Z,1.57
2023-05-10T04:13:59.034Z,1.63
2023-05-10T04:16:25.847Z,1.50
2023-05-10T04:18:52.550Z,1.70
2023-05-10T04:21:19.264Z,1.90
2023-05-10T04:23:45.914Z,1.83
2023-05-10T04:26:12.888Z,1.50
2023-05-10T04:28:39.741Z,1.30
2023-05-10T04:31:08.062Z,1.60
2023-05-10T04:33:35.371Z,1.40
2023-05-10T04:36:02.646Z,1.43
2023-05-10T04:38:29.612Z,1.40
2023-05-10T04:41:05.760Z,1.30
2023-05-10T04:43:32.585Z,5.77
2023-05-10T04:45:59.279Z,1.40
2023-05-10T04:48:25.907Z,1.40
2023-05-10T04:50:53.381Z,1.30
2023-05-10T04:53:20.040Z,1.30
2023-05-10T04:55:47.590Z,1.00
2023-05-10T04:58:14.432Z,1.13
2023-05-10T05:00:41.160Z,1.10
2023-05-10T05:03:08.023Z,1.20
2023-05-10T05:05:34.782Z,1.00
2023-05-10T05:08:01.640Z,1.10
2023-05-10T05:10:28.242Z,1.10
2023-05-10T05:12:54.865Z,1.20
2023-05-10T05:15:21.737Z,1.10
2023-05-10T05:17:48.496Z,1.10
2023-05-10T05:20:15.385Z,1.10
2023-05-10T05:22:42.350Z,1.10
2023-05-10T05:25:09.394Z,1.10
2023-05-10T05:27:36.059Z,1.00
2023-05-10T05:30:03.225Z,1.10
2023-05-10T05:32:29.885Z,1.00
2023-05-10T05:34:56.514Z,1.00
2023-05-10T05:37:23.643Z,1.03
2023-05-10T05:39:50.262Z,0.90
2023-05-10T05:42:18.695Z,1.00
2023-05-10T05:44:45.756Z,0.90
2023-05-10T05:47:12.372Z,1.03
2023-05-10T05:49:39.094Z,3.00
2023-05-10T05:52:06.017Z,1.07
2023-05-10T05:54:32.875Z,1.07
2023-05-10T05:57:01.321Z,0.90
2023-05-10T05:59:28.721Z,1.87
2023-05-10T06:01:55.540Z,1.23
2023-05-10T06:04:22.374Z,1.10
2023-05-10T06:06:49.103Z,1.10
2023-05-10T06:09:15.953Z,1.03
2023-05-10T06:11:42.998Z,1.13
2023-05-10T06:14:10.179Z,1.40
2023-05-10T06:16:36.899Z,1.17
2023-05-10T06:19:04.162Z,1.10
2023-05-10T06:21:31.232Z,1.50
2023-05-10T06:23:58.071Z,1.13
2023-05-10T06:26:24.751Z,1.00
2023-05-10T06:28:51.374Z,0.97
2023-05-10T06:31:18.650Z,0.90
2023-05-10T06:33:45.586Z,1.23
2023-05-10T06:36:12.221Z,1.10
2023-05-10T06:38:38.819Z,1.77
2023-05-10T06:41:05.530Z,1.10
2023-05-10T06:43:32.523Z,1.83
2023-05-10T06:45:59.350Z,1.10
2023-05-10T06:48:26.069Z,1.30
2023-05-10T06:50:52.754Z,1.20
2023-05-10T06:53:19.482Z,2.17
2023-05-10T06:55:46.475Z,1.10
2023-05-10T06:58:13.641Z,1.23
2023-05-10T07:00:41.497Z,1.23
2023-05-10T07:03:08.434Z,1.10
2023-05-10T07:05:35.444Z,1.53
2023-05-10T07:08:02.492Z,1.30
2023-05-10T07:10:29.237Z,1.20
2023-05-10T07:12:56.063Z,1.20
2023-05-10T07:15:22.977Z,1.10
2023-05-10T07:17:49.738Z,1.10
2023-05-10T07:20:16.628Z,1.20
2023-05-10T07:22:43.271Z,1.33
2023-05-10T07:25:10.385Z,1.13
2023-05-10T07:27:37.167Z,1.20
2023-05-10T07:30:04.203Z,1.20
2023-05-10T07:32:31.586Z,1.10
2023-05-10T07:34:58.280Z,1.37
2023-05-10T07:37:24.915Z,0.90
2023-05-10T07:39:51.535Z,0.90
2023-05-10T07:42:18.612Z,1.30
2023-05-10T07:44:45.357Z,1.03
2023-05-10T07:47:11.963Z,1.10
2023-05-10T07:49:39.221Z,1.10
2023-05-10T07:52:05.876Z,1.00
2023-05-10T07:54:32.710Z,0.90
2023-05-10T07:57:00.635Z,1.00
2023-05-10T07:59:27.312Z,0.90
2023-05-10T08:01:53.985Z,1.00
2023-05-10T08:04:20.670Z,0.97
2023-05-10T08:06:47.375Z,1.13
2023-05-10T08:09:14.454Z,1.73
2023-05-10T08:11:41.068Z,2.17
2023-05-10T08:14:07.690Z,1.20
2023-05-10T08:16:35.207Z,1.10
2023-05-10T08:19:02.308Z,1.20
2023-05-10T08:21:29.197Z,0.97
2023-05-10T08:23:55.897Z,1.23
2023-05-10T08:26:22.641Z,1.20
2023-05-10T08:28:49.380Z,0.90
2023-05-10T08:31:16.825Z,1.03
2023-05-10T08:33:44.499Z,1.27
2023-05-10T08:36:11.615Z,1.30
2023-05-10T08:38:38.832Z,1.50
2023-05-10T08:41:06.866Z,1.23
2023-05-10T08:43:33.991Z,1.20
2023-05-10T08:46:06.094Z,1.40
2023-05-10T08:48:35.260Z,1.60
2023-05-10T08:51:03.634Z,1.47
2023-05-10T08:53:33.986Z,2.63
2023-05-10T08:56:01.879Z,3.37
2023-05-10T08:58:28.743Z,1.30
2023-05-10T09:00:56.421Z,1.20
2023-05-10T09:03:23.138Z,2.60
2023-05-10T09:05:50.189Z,1.20
2023-05-10T09:08:17.446Z,1.17
2023-05-10T09:10:49.170Z,1.20
2023-05-10T09:13:16.662Z,4.20
2023-05-10T09:15:44.773Z,1.10
2023-05-10T09:18:11.731Z,1.20
2023-05-10T09:20:38.567Z,1.00
2023-05-10T09:23:06.063Z,1.60
2023-05-10T09:25:34.540Z,1.30
2023-05-10T09:28:01.351Z,1.30
2023-05-10T09:30:29.566Z,1.53
2023-05-10T09:32:58.324Z,1.60
2023-05-10T09:35:29.826Z,1.60
2023-05-10T09:38:00.055Z,1.33
2023-05-10T09:40:29.042Z,1.80
2023-05-10T09:42:56.745Z,1.47
2023-05-10T09:45:24.994Z,1.50
2023-05-10T09:47:52.227Z,1.50
2023-05-10T09:50:20.393Z,1.63
2023-05-10T09:52:58.735Z,1.30
2023-05-10T09:55:42.504Z,1.50
2023-05-10T09:58:12.305Z,1.40
2023-05-10T10:00:41.096Z,1.40
2023-05-10T10:03:17.144Z,1.60
2023-05-10T10:05:45.330Z,1.50
2023-05-10T10:08:13.318Z,4.40
2023-05-10T10:10:46.874Z,1.70
2023-05-10T10:13:14.337Z,1.67
2023-05-10T10:15:41.791Z,2.00
2023-05-10T10:18:13.193Z,1.73
2023-05-10T10:20:40.006Z,2.23
2023-05-10T10:23:06.612Z,1.77
2023-05-10T10:25:33.584Z,1.50
2023-05-10T10:28:17.071Z,1.70
2023-05-10T10:30:49.328Z,1.33
2023-05-10T10:33:35.007Z,1.40
2023-05-10T10:36:03.497Z,1.50
2023-05-10T10:38:54.352Z,1.67
2023-05-10T10:41:38.112Z,2.03
2023-05-10T10:44:26.887Z,1.70
2023-05-10T10:47:01.364Z,1.53
2023-05-10T10:49:28.309Z,1.53
2023-05-10T10:52:17.011Z,1.70
2023-05-10T10:54:57.762Z,1.43
2023-05-10T10:57:27.483Z,1.40
2023-05-10T11:00:18.823Z,1.80
2023-05-10T11:02:49.751Z,1.40
2023-05-10T11:05:38.760Z,1.70
2023-05-10T11:08:31.395Z,1.33
2023-05-10T11:11:00.781Z,1.80
2023-05-10T11:13:32.720Z,2.43
2023-05-10T11:16:10.075Z,2.00
2023-05-10T11:18:38.121Z,1.60
2023-05-10T11:21:06.169Z,1.50
2023-05-10T11:23:48.546Z,1.30
2023-05-10T11:26:15.620Z,1.90
2023-05-10T11:28:49.764Z,1.60
2023-05-10T11:31:17.830Z,1.40
2023-05-10T11:33:50.270Z,1.53
2023-05-10T11:36:22.774Z,1.60
2023-05-10T11:38:50.216Z,1.70
2023-05-10T11:41:19.718Z,1.30
2023-05-10T11:43:51.878Z,1.60
2023-05-10T11:46:21.398Z,1.40
2023-05-10T11:48:51.563Z,1.67
2023-05-10T11:51:25.336Z,1.70
2023-05-10T11:53:54.363Z,1.50
2023-05-10T11:56:21.618Z,1.27
2023-05-10T11:58:58.086Z,1.53
2023-05-10T12:01:28.652Z,1.40
2023-05-10T12:03:59.642Z,1.10
2023-05-10T12:06:32.705Z,1.40
2023-05-10T12:09:00.103Z,1.50
2023-05-10T12:11:28.800Z,4.43
2023-05-10T12:13:57.990Z,1.30
2023-05-10T12:16:27.055Z,1.40
2023-05-10T12:18:59.351Z,1.40
2023-05-10T12:21:26.800Z,1.37
2023-05-10T12:23:55.389Z,1.60
2023-05-10T12:26:27.318Z,1.90
2023-05-10T12:29:13.173Z,1.63
2023-05-10T12:31:56.794Z,1.73
2023-05-10T12:34:34.539Z,1.50
2023-05-10T12:37:01.612Z,2.00
2023-05-10T12:39:42.564Z,1.43
2023-05-10T12:42:09.540Z,1.83
2023-05-10T12:44:36.158Z,1.27
2023-05-10T12:47:02.804Z,1.43
2023-05-10T12:49:29.442Z,1.00
2023-05-10T12:51:56.055Z,1.20
2023-05-10T12:54:22.698Z,1.50
2023-05-10T12:56:49.279Z,1.20
2023-05-10T12:59:15.895Z,1.20
2023-05-10T13:01:42.543Z,1.13
2023-05-10T13:04:09.191Z,2.23
2023-05-10T13:06:36.156Z,1.33
2023-05-10T13:09:03.388Z,1.00
2023-05-10T13:11:30.094Z,1.00
2023-05-10T13:13:56.851Z,1.10
2023-05-10T13:16:23.676Z,1.00
2023-05-10T13:18:50.416Z,1.03
2023-05-10T13:21:17.461Z,1.17
2023-05-10T13:23:44.097Z,1.20
2023-05-10T13:26:10.722Z,4.00
2023-05-10T13:28:39.612Z,3.33
2023-05-10T13:31:06.292Z,1.67
2023-05-10T13:33:32.921Z,1.10
2023-05-10T13:35:59.529Z,1.70
2023-05-10T13:38:26.602Z,1.37
2023-05-10T13:40:53.727Z,1.33
2023-05-10T13:43:20.849Z,4.13
2023-05-10T13:45:47.519Z,1.63
2023-05-10T13:48:14.322Z,1.33
2023-05-10T13:50:41.103Z,1.23
2023-05-10T13:53:07.776Z,1.13
2023-05-10T13:55:34.605Z,1.10
2023-05-10T13:58:01.313Z,1.10
2023-05-10T14:00:28.111Z,1.10
2023-05-10T14:02:55.074Z,1.17
2023-05-10T14:05:25.475Z,1.00
2023-05-10T14:07:53.031Z,1.13
2023-05-10T14:10:19.694Z,1.00
2023-05-10T14:12:46.312Z,1.00
2023-05-10T14:15:12.929Z,1.00
2023-05-10T14:17:39.615Z,0.83
2023-05-10T14:20:06.951Z,0.90
2023-05-10T14:22:33.818Z,0.90
2023-05-10T14:25:00.693Z,0.83
2023-05-10T14:27:27.435Z,1.00
2023-05-10T14:29:54.883Z,1.00
2023-05-10T14:32:21.566Z,0.90
2023-05-10T14:34:48.260Z,1.03
2023-05-10T14:37:16.074Z,0.90
2023-05-10T14:39:44.883Z,1.03
2023-05-10T14:42:23.025Z,0.90
2023-05-10T14:44:58.511Z,1.10
2023-05-10T14:47:26.939Z,1.00
2023-05-10T14:49:53.653Z,1.00
2023-05-10T14:52:20.302Z,0.90
2023-05-10T14:54:47.138Z,0.93
2023-05-10T14:57:14.316Z,1.00
2023-05-10T14:59:40.910Z,1.00
2023-05-10T15:02:09.303Z,1.03
2023-05-10T15:04:36.309Z,1.00
2023-05-10T15:07:04.018Z,1.20
2023-05-10T15:09:30.746Z,1.63
2023-05-10T15:11:57.441Z,1.60
2023-05-10T15:14:24.181Z,1.20
2023-05-10T15:16:50.882Z,2.10
2023-05-10T15:19:17.582Z,1.10
2023-05-10T15:21:45.447Z,1.20
2023-05-10T15:24:12.063Z,1.10
2023-05-10T15:26:38.896Z,1.37
2023-05-10T15:29:05.711Z,1.30
2023-05-10T15:31:32.363Z,2.07
2023-05-10T15:34:01.945Z,1.57
2023-05-10T15:36:28.534Z,1.87
2023-05-10T15:38:55.623Z,1.93
2023-05-10T15:41:22.346Z,2.00
2023-05-10T15:43:49.297Z,2.00
2023-05-10T15:46:15.955Z,1.50
2023-05-10T15:48:42.769Z,1.87
2023-05-10T15:51:09.369Z,1.40
2023-05-10T15:53:36.213Z,6.23
2023-05-10T15:56:03.080Z,4.50
2023-05-10T15:58:29.739Z,2.47
2023-05-10T16:00:57.607Z,1.00
2023-05-10T16:03:24.742Z,1.00
2023-05-10T16:05:51.434Z,1.00
2023-05-10T16:08:18.100Z,1.60
2023-05-10T16:10:44.734Z,1.40
2023-05-10T16:13:11.485Z,2.53
2023-05-10T16:15:38.080Z,1.00
2023-05-10T16:18:05.097Z,1.50
2023-05-10T16:20:32.891Z,1.60
2023-05-10T16:23:07.598Z,2.43
2023-05-10T16:25:34.362Z,2.00
2023-05-10T16:28:01.194Z,2.23
2023-05-10T16:30:30.179Z,1.40
2023-05-10T16:32:57.941Z,1.40
2023-05-10T16:35:24.815Z,5.70
2023-05-10T16:37:51.618Z,2.00
2023-05-10T16:40:18.703Z,2.10
2023-05-10T16:42:45.388Z,1.60
2023-05-10T16:45:12.323Z,1.43
2023-05-10T16:47:40.189Z,1.57
2023-05-10T16:50:07.874Z,1.40
2023-05-10T16:52:36.004Z,1.60
2023-05-10T16:55:04.291Z,1.40
2023-05-10T16:57:32.759Z,1.20
2023-05-10T16:59:59.509Z,1.70
2023-05-10T17:02:26.504Z,1.63
2023-05-10T17:04:54.875Z,1.50
2023-05-10T17:07:22.632Z,1.57
2023-05-10T17:09:50.791Z,1.60
2023-05-10T17:12:17.439Z,2.20
2023-05-10T17:14:44.036Z,1.30
2023-05-10T17:17:11.227Z,1.53
2023-05-10T17:19:37.959Z,1.40
2023-05-10T17:22:04.740Z,1.50
2023-05-10T17:24:31.619Z,1.83
2023-05-10T17:27:00.161Z,1.70
2023-05-10T17:29:28.130Z,1.97
2023-05-10T17:31:54.794Z,1.60
2023-05-10T17:34:21.604Z,1.53
2023-05-10T17:36:48.176Z,1.40
2023-05-10T17:39:14.962Z,1.40
2023-05-10T17:41:41.747Z,1.53
2023-05-10T17:44:08.366Z,1.40
2023-05-10T17:46:35.513Z,2.30
2023-05-10T17:49:02.190Z,1.50
2023-05-10T17:51:28.856Z,1.53
2023-05-10T17:53:55.528Z,1.87
2023-05-10T17:56:22.316Z,1.80
2023-05-10T17:58:50.337Z,1.47
2023-05-10T18:01:17.075Z,1.70
2023-05-10T18:03:43.735Z,1.87
2023-05-10T18:06:10.494Z,1.50
2023-05-10T18:08:37.377Z,1.60
2023-05-10T18:11:04.133Z,1.53
2023-05-10T18:13:30.755Z,1.67
2023-05-10T18:15:57.546Z,1.60
2023-05-10T18:18:24.345Z,1.70
2023-05-10T18:20:56.406Z,3.33
2023-05-10T18:23:23.618Z,1.80
2023-05-10T18:25:51.789Z,2.10
2023-05-10T18:28:18.635Z,2.57
2023-05-10T18:30:45.403Z,3.00
2023-05-10T18:33:12.491Z,3.50
2023-05-10T18:35:40.155Z,3.03
2023-05-10T18:38:07.808Z,3.07
2023-05-10T18:40:34.524Z,3.50
2023-05-10T18:43:01.223Z,2.60
2023-05-10T18:45:27.823Z,3.17
2023-05-10T18:47:54.776Z,3.10
2023-05-10T18:50:21.608Z,3.23
2023-05-10T18:52:48.811Z,3.40
2023-05-10T18:55:15.627Z,3.03
2023-05-10T18:57:42.660Z,2.97
2023-05-10T19:00:12.163Z,3.00
2023-05-10T19:02:39.814Z,2.80
2023-05-10T19:05:07.320Z,2.37
2023-05-10T19:07:34.224Z,2.77
2023-05-10T19:10:00.931Z,3.90
2023-05-10T19:12:28.304Z,3.03
2023-05-10T19:14:54.925Z,3.87
2023-05-10T19:17:22.694Z,6.40
2023-05-10T19:19:49.841Z,8.03
2023-05-10T19:22:16.456Z,5.70
2023-05-10T19:24:43.246Z,6.07
2023-05-10T19:27:09.941Z,4.70
2023-05-10T19:29:36.925Z,4.57
2023-05-10T19:32:04.370Z,3.23
2023-05-10T19:34:31.129Z,3.33
2023-05-10T19:36:57.813Z,2.90
2023-05-10T19:39:24.451Z,2.50
2023-05-10T19:41:51.281Z,2.17
2023-05-10T19:44:17.996Z,2.40
2023-05-10T19:46:44.879Z,2.60
2023-05-10T19:49:11.654Z,2.00
2023-05-10T19:51:38.423Z,2.60
2023-05-10T19:54:05.284Z,2.47
2023-05-10T19:56:32.165Z,2.37
2023-05-10T19:58:59.307Z,2.40
2023-05-10T20:01:26.199Z,2.70
2023-05-10T20:03:52.990Z,3.60
2023-05-10T20:06:19.857Z,2.10
2023-05-10T20:08:46.603Z,3.60
2023-05-10T20:11:13.371Z,3.00
2023-05-10T20:13:39.953Z,2.90
2023-05-10T20:16:07.072Z,2.70
2023-05-10T20:18:38.099Z,2.70
2023-05-10T20:21:09.888Z,2.70
2023-05-10T20:23:36.676Z,2.77
2023-05-10T20:26:03.786Z,2.70
2023-05-10T20:28:30.515Z,2.80
2023-05-10T20:30:57.798Z,2.60
2023-05-10T20:33:25.069Z,2.87
2023-05-10T20:35:52.357Z,2.80
2023-05-10T20:38:19.098Z,2.90
2023-05-10T20:40:47.081Z,2.80
2023-05-10T20:43:13.708Z,2.73
2023-05-10T20:45:40.490Z,2.40
2023-05-10T20:48:07.897Z,3.03
2023-05-10T20:50:34.623Z,3.10
2023-05-10T20:53:01.515Z,2.70
2023-05-10T20:55:28.727Z,2.80
2023-05-10T20:57:55.567Z,2.90
2023-05-10T21:00:25.900Z,2.57
2023-05-10T21:02:52.540Z,2.73
2023-05-10T21:05:19.194Z,2.70
2023-05-10T21:07:45.968Z,3.20
2023-05-10T21:10:12.729Z,2.60
2023-05-10T21:12:39.405Z,3.20
2023-05-10T21:15:07.986Z,2.63
2023-05-10T21:17:34.696Z,2.67
2023-05-10T21:20:02.224Z,2.70
2023-05-10T21:22:28.943Z,2.70
2023-05-10T21:24:55.723Z,2.70
2023-05-10T21:27:22.313Z,3.00
2023-05-10T21:29:48.906Z,2.53
2023-05-10T21:32:15.534Z,3.37
2023-05-10T21:34:42.527Z,2.53
2023-05-10T21:37:09.221Z,2.60
2023-05-10T21:39:35.987Z,3.27
2023-05-10T21:42:03.610Z,3.13
2023-05-10T21:44:31.343Z,3.10
2023-05-10T21:46:57.932Z,2.93
2023-05-10T21:49:24.582Z,2.97
2023-05-10T21:51:51.201Z,2.40
2023-05-10T21:54:17.843Z,2.67
2023-05-10T21:56:44.862Z,2.83
2023-05-10T21:59:11.495Z,3.27
2023-05-10T22:01:38.171Z,2.63
2023-05-10T22:04:04.797Z,3.43
2023-05-10T22:06:31.883Z,3.00
2023-05-10T22:08:58.548Z,2.90
2023-05-10T22:11:25.904Z,2.73
2023-05-10T22:13:52.609Z,2.80
2023-05-10T22:16:19.356Z,3.10
2023-05-10T22:18:46.096Z,2.60
2023-05-10T22:21:13.038Z,3.20
2023-05-10T22:23:39.653Z,3.57
2023-05-10T22:26:06.555Z,3.13
2023-05-10T22:28:33.183Z,3.17
2023-05-10T22:30:59.810Z,3.40
2023-05-10T22:33:27.587Z,3.20
2023-05-10T22:35:54.273Z,3.23
2023-05-10T22:38:21.376Z,3.60
2023-05-10T22:40:48.239Z,3.20
2023-05-10T22:43:16.313Z,3.20
2023-05-10T22:45:42.975Z,3.77
2023-05-10T22:48:09.732Z,3.53
2023-05-10T22:50:36.985Z,3.40
2023-05-10T22:53:03.634Z,3.30
2023-05-10T22:55:30.474Z,3.10
2023-05-10T22:57:57.149Z,3.70
2023-05-10T23:00:24.545Z,2.97
2023-05-10T23:02:51.522Z,3.53
2023-05-10T23:05:18.399Z,4.30
2023-05-10T23:07:45.082Z,3.30
2023-05-10T23:10:11.669Z,3.13
2023-05-10T23:12:38.507Z,3.10
2023-05-10T23:15:06.217Z,3.30
2023-05-10T23:17:32.977Z,3.17
2023-05-10T23:19:59.602Z,3.17
2023-05-10T23:22:26.277Z,2.80
2023-05-10T23:24:52.849Z,3.10
2023-05-10T23:27:19.602Z,2.83
2023-05-10T23:29:46.441Z,3.10
2023-05-10T23:32:13.069Z,3.00
2023-05-10T23:34:39.739Z,2.70
2023-05-10T23:37:06.327Z,3.10
2023-05-10T23:39:33.042Z,2.90
2023-05-10T23:41:59.619Z,3.20
2023-05-10T23:44:26.488Z,3.40
2023-05-10T23:46:53.127Z,3.13
2023-05-10T23:49:19.783Z,3.27
2023-05-10T23:51:46.396Z,3.20
2023-05-10T23:54:13.014Z,3.40
2023-05-10T23:56:39.618Z,2.90
2023-05-10T23:59:06.218Z,3.30
